sensor_id;sensor_type;location;lat;lon;timestamp;pressure;altitude;pressure_sealevel;temperature;humidity
29385;BME280;16367;48.736;9.218;2024-03-17T00:01:27;45364.25;;;6.74;100.00
29385;BME280;16367;48.736;9.218;2024-03-17T00:03:29;43927.25;;;6.92;100.00
29385;BME280;16367;48.736;9.218;2024-03-17T00:05:31;43928.59;;;6.77;100.00
29385;BME280;16367;48.736;9.218;2024-03-17T00:07:34;47063.78;;;6.78;100.00
29385;BME280;16367;48.736;9.218;2024-03-17T00:09:34;48841.97;;;6.78;100.00
29385;BME280;16367;48.736;9.218;2024-03-17T00:11:36;50948.47;;;6.86;100.00
29385;BME280;16367;48.736;9.218;2024-03-17T00:13:37;50906.44;;;6.78;100.00
29385;BME280;16367;48.736;9.218;2024-03-17T00:15:39;49968.38;;;6.78;100.00
29385;BME280;16367;48.736;9.218;2024-03-17T00:17:40;52160.03;;;6.78;100.00
29385;BME280;16367;48.736;9.218;2024-03-17T00:19:42;52857.44;;;6.76;100.00
29385;BME280;16367;48.736;9.218;2024-03-17T00:21:44;54536.06;;;6.76;100.00
29385;BME280;16367;48.736;9.218;2024-03-17T00:23:47;55871.88;;;6.74;100.00
29385;BME280;16367;48.736;9.218;2024-03-17T00:25:47;53784.19;;;6.80;100.00
29385;BME280;16367;48.736;9.218;2024-03-17T00:27:51;52926.09;;;6.78;100.00
29385;BME280;16367;48.736;9.218;2024-03-17T00:29:55;52074.72;;;6.79;100.00
29385;BME280;16367;48.736;9.218;2024-03-17T00:31:58;51372.47;;;6.84;100.00
29385;BME280;16367;48.736;9.218;2024-03-17T00:33:59;51441.88;;;6.93;100.00
29385;BME280;16367;48.736;9.218;2024-03-17T00:36:01;50266.56;;;6.99;100.00
29385;BME280;16367;48.736;9.218;2024-03-17T00:38:04;47740.06;;;7.19;100.00
29385;BME280;16367;48.736;9.218;2024-03-17T00:40:10;45478.22;;;7.02;100.00
29385;BME280;16367;48.736;9.218;2024-03-17T00:42:12;46368.97;;;6.98;100.00
29385;BME280;16367;48.736;9.218;2024-03-17T00:44:14;46597.75;;;7.00;100.00
29385;BME280;16367;48.736;9.218;2024-03-17T00:46:16;43610.44;;;6.97;100.00
29385;BME280;16367;48.736;9.218;2024-03-17T00:48:18;42437.16;;;6.97;100.00
29385;BME280;16367;48.736;9.218;2024-03-17T00:50:19;40374.69;;;6.91;100.00
29385;BME280;16367;48.736;9.218;2024-03-17T00:52:21;40026.63;;;6.91;100.00
29385;BME280;16367;48.736;9.218;2024-03-17T00:54:23;39441.97;;;6.81;100.00
29385;BME280;16367;48.736;9.218;2024-03-17T00:56:25;41474.81;;;6.86;100.00
29385;BME280;16367;48.736;9.218;2024-03-17T00:58:26;40587.19;;;6.86;100.00
29385;BME280;16367;48.736;9.218;2024-03-17T01:00:29;42256.28;;;6.90;100.00
29385;BME280;16367;48.736;9.218;2024-03-17T01:02:30;40483.66;;;6.87;100.00
29385;BME280;16367;48.736;9.218;2024-03-17T01:04:32;39878.81;;;6.87;100.00
29385;BME280;16367;48.736;9.218;2024-03-17T01:06:34;38378.25;;;6.86;100.00
29385;BME280;16367;48.736;9.218;2024-03-17T01:08:36;38890.19;;;6.73;100.00
29385;BME280;16367;48.736;9.218;2024-03-17T01:10:39;41047.91;;;6.90;100.00
29385;BME280;16367;48.736;9.218;2024-03-17T01:12:41;41137.19;;;6.80;100.00
29385;BME280;16367;48.736;9.218;2024-03-17T01:14:42;41119.47;;;6.87;100.00
29385;BME280;16367;48.736;9.218;2024-03-17T01:16:44;40487.63;;;6.78;100.00
29385;BME280;16367;48.736;9.218;2024-03-17T01:18:45;41005.34;;;6.84;100.00
29385;BME280;16367;48.736;9.218;2024-03-17T01:20:46;43094.44;;;6.88;100.00
29385;BME280;16367;48.736;9.218;2024-03-17T01:22:47;43357.53;;;6.86;100.00
29385;BME280;16367;48.736;9.218;2024-03-17T01:24:49;42760.56;;;6.84;100.00
29385;BME280;16367;48.736;9.218;2024-03-17T01:26:51;42798.47;;;6.87;100.00
29385;BME280;16367;48.736;9.218;2024-03-17T01:28:53;45341.63;;;7.00;100.00
29385;BME280;16367;48.736;9.218;2024-03-17T01:30:54;45340.13;;;6.95;100.00
29385;BME280;16367;48.736;9.218;2024-03-17T01:32:56;42537.56;;;6.98;100.00
29385;BME280;16367;48.736;9.218;2024-03-17T01:34:57;40842.69;;;6.98;100.00
29385;BME280;16367;48.736;9.218;2024-03-17T01:36:59;41100.41;;;7.02;100.00
29385;BME280;16367;48.736;9.218;2024-03-17T01:39:00;41235.63;;;7.03;100.00
29385;BME280;16367;48.736;9.218;2024-03-17T01:41:03;40988.16;;;7.09;100.00
29385;BME280;16367;48.736;9.218;2024-03-17T01:43:09;44121.06;;;7.15;100.00
29385;BME280;16367;48.736;9.218;2024-03-17T01:45:26;43627.66;;;7.12;100.00
29385;BME280;16367;48.736;9.218;2024-03-17T01:47:28;43880.88;;;7.07;100.00
29385;BME280;16367;48.736;9.218;2024-03-17T01:49:30;42239.19;;;7.01;100.00
29385;BME280;16367;48.736;9.218;2024-03-17T01:51:31;41708.84;;;7.03;100.00
29385;BME280;16367;48.736;9.218;2024-03-17T01:53:33;42008.94;;;7.09;100.00
29385;BME280;16367;48.736;9.218;2024-03-17T01:55:36;40081.81;;;7.08;100.00
29385;BME280;16367;48.736;9.218;2024-03-17T01:57:39;39390.28;;;7.12;100.00
29385;BME280;16367;48.736;9.218;2024-03-17T01:59:42;39390.91;;;7.20;100.00
29385;BME280;16367;48.736;9.218;2024-03-17T02:01:44;37807.19;;;7.21;100.00
29385;BME280;16367;48.736;9.218;2024-03-17T02:03:45;37346.31;;;7.20;100.00
29385;BME280;16367;48.736;9.218;2024-03-17T02:05:47;35611.22;;;7.21;100.00
29385;BME280;16367;48.736;9.218;2024-03-17T02:07:48;35125.56;;;7.25;100.00
29385;BME280;16367;48.736;9.218;2024-03-17T02:09:50;35810.44;;;7.23;100.00
29385;BME280;16367;48.736;9.218;2024-03-17T02:11:51;35319.59;;;7.18;100.00
29385;BME280;16367;48.736;9.218;2024-03-17T02:13:55;34781.91;;;7.16;100.00
29385;BME280;16367;48.736;9.218;2024-03-17T02:15:58;35373.84;;;7.12;100.00
29385;BME280;16367;48.736;9.218;2024-03-17T02:17:59;35840.28;;;7.22;100.00
29385;BME280;16367;48.736;9.218;2024-03-17T02:20:01;34182.94;;;7.25;100.00
29385;BME280;16367;48.736;9.218;2024-03-17T02:22:04;34094.31;;;7.25;100.00
29385;BME280;16367;48.736;9.218;2024-03-17T02:24:07;33233.41;;;7.30;100.00
29385;BME280;16367;48.736;9.218;2024-03-17T02:26:10;31310.66;;;7.25;100.00
29385;BME280;16367;48.736;9.218;2024-03-17T02:28:11;30506.53;;;7.30;100.00
29385;BME280;16367;48.736;9.218;2024-03-17T02:30:13;30527.97;;;7.28;100.00
29385;BME280;16367;48.736;9.218;2024-03-17T02:32:13;29823.22;;;7.29;100.00
29385;BME280;16367;48.736;9.218;2024-03-17T02:34:16;29537.28;;;7.31;100.00
29385;BME280;16367;48.736;9.218;2024-03-17T02:36:16;28025.00;;;7.26;100.00
29385;BME280;16367;48.736;9.218;2024-03-17T02:38:18;25862.13;;;7.26;100.00
29385;BME280;16367;48.736;9.218;2024-03-17T02:40:41;24415.72;;;7.23;100.00
29385;BME280;16367;48.736;9.218;2024-03-17T02:42:43;24072.25;;;7.20;100.00
29385;BME280;16367;48.736;9.218;2024-03-17T02:44:45;23458.78;;;7.30;100.00
29385;BME280;16367;48.736;9.218;2024-03-17T02:46:47;24080.53;;;7.27;100.00
29385;BME280;16367;48.736;9.218;2024-03-17T02:48:50;26486.13;;;7.22;100.00
29385;BME280;16367;48.736;9.218;2024-03-17T02:50:52;29707.53;;;7.13;100.00
29385;BME280;16367;48.736;9.218;2024-03-17T02:52:54;33089.78;;;6.98;100.00
29385;BME280;16367;48.736;9.218;2024-03-17T02:54:56;35012.38;;;6.99;100.00
29385;BME280;16367;48.736;9.218;2024-03-17T02:56:58;35579.97;;;7.12;100.00
29385;BME280;16367;48.736;9.218;2024-03-17T02:59:00;34774.91;;;7.13;100.00
29385;BME280;16367;48.736;9.218;2024-03-17T03:01:02;35906.78;;;7.11;100.00
29385;BME280;16367;48.736;9.218;2024-03-17T03:03:05;34835.25;;;7.00;100.00
29385;BME280;16367;48.736;9.218;2024-03-17T03:05:06;35061.34;;;7.08;100.00
29385;BME280;16367;48.736;9.218;2024-03-17T03:07:09;31638.00;;;7.03;100.00
29385;BME280;16367;48.736;9.218;2024-03-17T03:09:11;32539.22;;;6.99;100.00
29385;BME280;16367;48.736;9.218;2024-03-17T03:11:16;33622.88;;;6.86;100.00
29385;BME280;16367;48.736;9.218;2024-03-17T03:13:19;33164.44;;;6.83;100.00
29385;BME280;16367;48.736;9.218;2024-03-17T03:15:20;33300.91;;;6.82;100.00
29385;BME280;16367;48.736;9.218;2024-03-17T03:17:22;32302.75;;;6.85;100.00
29385;BME280;16367;48.736;9.218;2024-03-17T03:19:25;30781.03;;;6.86;100.00
29385;BME280;16367;48.736;9.218;2024-03-17T03:21:27;29784.25;;;6.82;100.00
29385;BME280;16367;48.736;9.218;2024-03-17T03:23:28;28573.38;;;6.64;100.00
29385;BME280;16367;48.736;9.218;2024-03-17T03:25:30;28903.34;;;6.56;100.00
29385;BME280;16367;48.736;9.218;2024-03-17T03:27:32;29412.56;;;6.69;100.00
29385;BME280;16367;48.736;9.218;2024-03-17T03:29:35;28934.25;;;6.71;100.00
29385;BME280;16367;48.736;9.218;2024-03-17T03:31:38;27331.16;;;6.53;100.00
29385;BME280;16367;48.736;9.218;2024-03-17T03:33:39;26989.19;;;6.48;100.00
29385;BME280;16367;48.736;9.218;2024-03-17T03:35:41;27147.25;;;6.55;100.00
29385;BME280;16367;48.736;9.218;2024-03-17T03:37:42;26827.59;;;6.54;100.00
29385;BME280;16367;48.736;9.218;2024-03-17T03:39:44;26397.56;;;6.50;100.00
29385;BME280;16367;48.736;9.218;2024-03-17T03:41:45;25865.72;;;6.55;100.00
29385;BME280;16367;48.736;9.218;2024-03-17T03:43:47;25620.09;;;6.55;100.00
29385;BME280;16367;48.736;9.218;2024-03-17T03:45:51;23889.72;;;6.41;100.00
29385;BME280;16367;48.736;9.218;2024-03-17T03:47:51;22239.91;;;6.52;100.00
29385;BME280;16367;48.736;9.218;2024-03-17T03:49:53;22457.84;;;6.47;100.00
29385;BME280;16367;48.736;9.218;2024-03-17T03:51:57;21770.88;;;6.32;100.00
29385;BME280;16367;48.736;9.218;2024-03-17T03:53:59;21088.88;;;6.46;100.00
29385;BME280;16367;48.736;9.218;2024-03-17T03:56:03;21149.50;;;6.52;100.00
29385;BME280;16367;48.736;9.218;2024-03-17T03:58:06;19889.06;;;6.49;100.00
29385;BME280;16367;48.736;9.218;2024-03-17T04:00:09;18965.38;;;6.39;100.00
29385;BME280;16367;48.736;9.218;2024-03-17T04:02:15;18902.38;;;6.40;100.00
29385;BME280;16367;48.736;9.218;2024-03-17T04:04:17;18282.38;;;6.37;100.00
29385;BME280;16367;48.736;9.218;2024-03-17T04:06:18;17776.72;;;6.36;100.00
29385;BME280;16367;48.736;9.218;2024-03-17T04:08:19;16641.63;;;6.33;100.00
29385;BME280;16367;48.736;9.218;2024-03-17T04:10:24;15462.13;;;6.32;100.00
29385;BME280;16367;48.736;9.218;2024-03-17T04:12:27;14564.25;;;6.35;100.00
29385;BME280;16367;48.736;9.218;2024-03-17T04:14:31;13552.13;;;6.43;100.00
29385;BME280;16367;48.736;9.218;2024-03-17T04:16:33;12803.25;;;6.36;100.00
29385;BME280;16367;48.736;9.218;2024-03-17T04:18:37;11436.25;;;6.47;100.00
29385;BME280;16367;48.736;9.218;2024-03-17T04:20:40;10175.50;;;6.38;100.00
29385;BME280;16367;48.736;9.218;2024-03-17T04:22:42;10425.78;;;6.51;100.00
29385;BME280;16367;48.736;9.218;2024-03-17T04:24:44;9286.19;;;6.52;100.00
29385;BME280;16367;48.736;9.218;2024-03-17T04:26:47;7052.91;;;6.38;100.00
29385;BME280;16367;48.736;9.218;2024-03-17T04:28:49;7761.47;;;6.41;100.00
29385;BME280;16367;48.736;9.218;2024-03-17T04:30:49;6235.94;;;6.49;100.00
29385;BME280;16367;48.736;9.218;2024-03-17T04:32:51;6073.50;;;6.41;100.00
29385;BME280;16367;48.736;9.218;2024-03-17T04:34:55;5656.03;;;6.29;100.00
29385;BME280;16367;48.736;9.218;2024-03-17T04:36:55;5709.53;;;6.33;100.00
29385;BME280;16367;48.736;9.218;2024-03-17T04:38:57;5343.94;;;6.30;100.00
29385;BME280;16367;48.736;9.218;2024-03-17T04:40:59;3989.19;;;6.08;100.00
29385;BME280;16367;48.736;9.218;2024-03-17T04:43:05;4177.50;;;6.05;100.00
29385;BME280;16367;48.736;9.218;2024-03-17T04:45:08;3716.03;;;5.96;100.00
29385;BME280;16367;48.736;9.218;2024-03-17T04:47:10;2891.09;;;5.96;100.00
29385;BME280;16367;48.736;9.218;2024-03-17T04:49:13;1397.31;;;5.94;100.00
29385;BME280;16367;48.736;9.218;2024-03-17T04:51:16;263.09;;;5.84;100.00
29385;BME280;16367;48.736;9.218;2024-03-17T04:53:18;-73.88;;;5.80;100.00
29385;BME280;16367;48.736;9.218;2024-03-17T04:55:20;-719.13;;;5.87;100.00
29385;BME280;16367;48.736;9.218;2024-03-17T04:57:22;-1636.06;;;5.84;100.00
29385;BME280;16367;48.736;9.218;2024-03-17T04:59:24;-2567.66;;;5.85;100.00
29385;BME280;16367;48.736;9.218;2024-03-17T05:01:25;-3235.41;;;5.95;100.00
29385;BME280;16367;48.736;9.218;2024-03-17T05:03:27;-4033.78;;;5.91;100.00
29385;BME280;16367;48.736;9.218;2024-03-17T05:05:29;-5281.03;;;5.87;100.00
29385;BME280;16367;48.736;9.218;2024-03-17T05:07:32;-5205.78;;;5.88;100.00
29385;BME280;16367;48.736;9.218;2024-03-17T05:09:33;-5918.28;;;5.85;100.00
29385;BME280;16367;48.736;9.218;2024-03-17T05:11:35;-5970.84;;;5.82;100.00
29385;BME280;16367;48.736;9.218;2024-03-17T05:13:38;-6354.53;;;5.80;100.00
29385;BME280;16367;48.736;9.218;2024-03-17T05:15:40;-6657.88;;;5.77;100.00
29385;BME280;16367;48.736;9.218;2024-03-17T05:17:41;-6788.50;;;5.81;100.00
29385;BME280;16367;48.736;9.218;2024-03-17T05:19:43;-7307.38;;;5.77;100.00
29385;BME280;16367;48.736;9.218;2024-03-17T05:21:45;-7570.84;;;5.80;100.00
29385;BME280;16367;48.736;9.218;2024-03-17T05:23:48;-8165.13;;;5.81;100.00
29385;BME280;16367;48.736;9.218;2024-03-17T05:25:51;-7646.13;;;5.81;100.00
29385;BME280;16367;48.736;9.218;2024-03-17T05:27:51;-7839.50;;;5.86;100.00
29385;BME280;16367;48.736;9.218;2024-03-17T05:29:53;-7866.75;;;5.81;100.00
29385;BME280;16367;48.736;9.218;2024-03-17T05:31:56;-8851.75;;;5.78;100.00
29385;BME280;16367;48.736;9.218;2024-03-17T05:33:58;-8648.19;;;5.71;100.00
29385;BME280;16367;48.736;9.218;2024-03-17T05:36:02;-8813.75;;;5.73;100.00
29385;BME280;16367;48.736;9.218;2024-03-17T05:38:05;-8684.19;;;5.83;100.00
29385;BME280;16367;48.736;9.218;2024-03-17T05:40:12;-8955.09;;;5.85;100.00
29385;BME280;16367;48.736;9.218;2024-03-17T05:42:14;-9261.25;;;5.89;100.00
29385;BME280;16367;48.736;9.218;2024-03-17T05:44:16;-10964.59;;;5.82;100.00
29385;BME280;16367;48.736;9.218;2024-03-17T05:46:18;-11011.03;;;5.93;100.00
29385;BME280;16367;48.736;9.218;2024-03-17T05:48:20;-11201.41;;;5.93;100.00
29385;BME280;16367;48.736;9.218;2024-03-17T05:50:22;-11207.25;;;6.00;100.00
29385;BME280;16367;48.736;9.218;2024-03-17T05:52:24;-11503.94;;;6.08;100.00
29385;BME280;16367;48.736;9.218;2024-03-17T05:54:26;-11099.25;;;6.19;100.00
29385;BME280;16367;48.736;9.218;2024-03-17T05:56:28;-11034.44;;;6.22;100.00
29385;BME280;16367;48.736;9.218;2024-03-17T05:58:30;-11439.03;;;6.10;100.00
29385;BME280;16367;48.736;9.218;2024-03-17T06:00:32;-11141.03;;;6.12;100.00
29385;BME280;16367;48.736;9.218;2024-03-17T06:02:34;-11156.19;;;6.13;100.00
29385;BME280;16367;48.736;9.218;2024-03-17T06:04:35;-11546.59;;;5.88;100.00
29385;BME280;16367;48.736;9.218;2024-03-17T06:06:38;-10585.00;;;5.93;100.00
29385;BME280;16367;48.736;9.218;2024-03-17T06:08:40;-9607.63;;;5.94;100.00
29385;BME280;16367;48.736;9.218;2024-03-17T06:10:43;-9476.56;;;6.14;100.00
29385;BME280;16367;48.736;9.218;2024-03-17T06:12:46;-9997.03;;;6.03;100.00
29385;BME280;16367;48.736;9.218;2024-03-17T06:14:47;-8781.16;;;6.04;100.00
29385;BME280;16367;48.736;9.218;2024-03-17T06:16:50;-8574.28;;;5.88;100.00
29385;BME280;16367;48.736;9.218;2024-03-17T06:18:51;-7456.31;;;5.94;100.00
29385;BME280;16367;48.736;9.218;2024-03-17T06:20:53;-5911.44;;;6.06;100.00
29385;BME280;16367;48.736;9.218;2024-03-17T06:22:58;-6310.19;;;5.99;100.00
29385;BME280;16367;48.736;9.218;2024-03-17T06:25:00;-5959.41;;;6.15;100.00
29385;BME280;16367;48.736;9.218;2024-03-17T06:27:02;-4204.59;;;6.16;100.00
29385;BME280;16367;48.736;9.218;2024-03-17T06:29:05;-3687.28;;;6.21;100.00
29385;BME280;16367;48.736;9.218;2024-03-17T06:31:08;-3340.53;;;6.34;100.00
29385;BME280;16367;48.736;9.218;2024-03-17T06:33:11;-1852.34;;;6.51;100.00
29385;BME280;16367;48.736;9.218;2024-03-17T06:35:14;-1010.41;;;6.43;100.00
29385;BME280;16367;48.736;9.218;2024-03-17T06:37:16;313.50;;;6.60;100.00
29385;BME280;16367;48.736;9.218;2024-03-17T06:39:17;-1354.44;;;6.53;100.00
29385;BME280;16367;48.736;9.218;2024-03-17T06:41:21;-745.13;;;6.68;100.00
29385;BME280;16367;48.736;9.218;2024-03-17T06:43:23;-630.38;;;6.50;100.00
29385;BME280;16367;48.736;9.218;2024-03-17T06:45:26;1602.56;;;6.40;100.00
29385;BME280;16367;48.736;9.218;2024-03-17T06:47:27;5230.91;;;6.66;100.00
29385;BME280;16367;48.736;9.218;2024-03-17T06:49:29;4476.03;;;6.72;100.00
29385;BME280;16367;48.736;9.218;2024-03-17T06:51:31;4166.25;;;6.72;100.00
29385;BME280;16367;48.736;9.218;2024-03-17T06:53:33;4414.59;;;6.84;100.00
29385;BME280;16367;48.736;9.218;2024-03-17T06:55:35;-466.28;;;7.07;100.00
29385;BME280;16367;48.736;9.218;2024-03-17T06:57:35;-4597.38;;;7.08;100.00
29385;BME280;16367;48.736;9.218;2024-03-17T06:59:37;-6865.41;;;7.19;100.00
29385;BME280;16367;48.736;9.218;2024-03-17T07:01:40;-13483.59;;;7.72;100.00
29385;BME280;16367;48.736;9.218;2024-03-17T07:03:41;-23406.41;;;7.52;100.00
29385;BME280;16367;48.736;9.218;2024-03-17T07:05:50;-23410.06;;;7.64;100.00
29385;BME280;16367;48.736;9.218;2024-03-17T07:07:51;-23438.66;;;8.55;100.00
29385;BME280;16367;48.736;9.218;2024-03-17T07:09:53;-23437.41;;;8.51;100.00
29385;BME280;16367;48.736;9.218;2024-03-17T07:11:55;-23434.84;;;8.43;100.00
29385;BME280;16367;48.736;9.218;2024-03-17T07:13:57;-23428.81;;;8.23;100.00
29385;BME280;16367;48.736;9.218;2024-03-17T07:15:59;-23443.41;;;8.70;100.00
29385;BME280;16367;48.736;9.218;2024-03-17T07:18:04;-23432.94;;;8.37;100.00
29385;BME280;16367;48.736;9.218;2024-03-17T07:20:06;-23435.47;;;8.45;100.00
29385;BME280;16367;48.736;9.218;2024-03-17T07:22:09;-23443.59;;;8.70;100.00
29385;BME280;16367;48.736;9.218;2024-03-17T07:24:11;-23439.94;;;8.59;100.00
29385;BME280;16367;48.736;9.218;2024-03-17T07:26:12;-23433.91;;;8.40;100.00
29385;BME280;16367;48.736;9.218;2024-03-17T07:28:15;-23470.69;;;9.56;100.00
29385;BME280;16367;48.736;9.218;2024-03-17T07:30:17;-23460.88;;;9.25;100.00
29385;BME280;16367;48.736;9.218;2024-03-17T07:32:18;-23466.91;;;9.44;100.00
29385;BME280;16367;48.736;9.218;2024-03-17T07:34:22;-23468.50;;;9.49;100.00
29385;BME280;16367;48.736;9.218;2024-03-17T07:36:23;-23470.38;;;9.55;100.00
29385;BME280;16367;48.736;9.218;2024-03-17T07:38:26;-23509.06;;;10.78;100.00
29385;BME280;16367;48.736;9.218;2024-03-17T07:40:28;-23495.59;;;10.35;100.00
29385;BME280;16367;48.736;9.218;2024-03-17T07:42:32;-23523.00;;;11.22;100.00
29385;BME280;16367;48.736;9.218;2024-03-17T07:44:34;-23531.84;;;11.51;98.62
29385;BME280;16367;48.736;9.218;2024-03-17T07:46:36;-23468.81;;;9.50;100.00
29385;BME280;16367;48.736;9.218;2024-03-17T07:48:39;-23480.69;;;9.88;100.00
29385;BME280;16367;48.736;9.218;2024-03-17T07:50:42;-23482.75;;;9.95;100.00
29385;BME280;16367;48.736;9.218;2024-03-17T07:52:44;-23485.28;;;10.03;100.00
29385;BME280;16367;48.736;9.218;2024-03-17T07:54:46;-23503.03;;;10.59;100.00
29385;BME280;16367;48.736;9.218;2024-03-17T07:56:47;-23474.50;;;9.68;100.00
29385;BME280;16367;48.736;9.218;2024-03-17T07:58:50;-23495.91;;;10.36;100.00
29385;BME280;16367;48.736;9.218;2024-03-17T08:00:52;-23513.81;;;10.93;100.00
29385;BME280;16367;48.736;9.218;2024-03-17T08:02:53;-23476.88;;;9.76;100.00
29385;BME280;16367;48.736;9.218;2024-03-17T08:04:55;-23473.88;;;9.66;100.00
29385;BME280;16367;48.736;9.218;2024-03-17T08:06:58;-23488.94;;;10.14;100.00
29385;BME280;16367;48.736;9.218;2024-03-17T08:08:59;-23471.66;;;9.59;100.00
29385;BME280;16367;48.736;9.218;2024-03-17T08:11:01;-23485.91;;;10.05;100.00
29385;BME280;16367;48.736;9.218;2024-03-17T08:13:04;-23470.06;;;9.54;100.00
29385;BME280;16367;48.736;9.218;2024-03-17T08:15:06;-23487.84;;;10.11;100.00
29385;BME280;16367;48.736;9.218;2024-03-17T08:17:09;-23477.84;;;9.79;100.00
29385;BME280;16367;48.736;9.218;2024-03-17T08:19:11;-23503.84;;;10.62;100.00
29385;BME280;16367;48.736;9.218;2024-03-17T08:21:12;-23491.78;;;10.23;100.00
29385;BME280;16367;48.736;9.218;2024-03-17T08:23:15;-23476.88;;;9.76;100.00
29385;BME280;16367;48.736;9.218;2024-03-17T08:25:17;-23481.31;;;9.90;100.00
29385;BME280;16367;48.736;9.218;2024-03-17T08:27:18;-23487.03;;;10.08;100.00
29385;BME280;16367;48.736;9.218;2024-03-17T08:29:19;-23487.19;;;10.09;100.00
29385;BME280;16367;48.736;9.218;2024-03-17T08:31:21;-23491.63;;;10.23;100.00
29385;BME280;16367;48.736;9.218;2024-03-17T08:33:22;-23488.16;;;10.12;100.00
29385;BME280;16367;48.736;9.218;2024-03-17T08:35:24;-23498.28;;;10.44;100.00
29385;BME280;16367;48.736;9.218;2024-03-17T08:37:26;-23474.03;;;9.67;100.00
29385;BME280;16367;48.736;9.218;2024-03-17T08:39:30;-23497.66;;;10.42;100.00
29385;BME280;16367;48.736;9.218;2024-03-17T08:41:31;-23488.78;;;10.14;100.00
29385;BME280;16367;48.736;9.218;2024-03-17T08:43:34;-23500.66;;;10.52;100.00
29385;BME280;16367;48.736;9.218;2024-03-17T08:45:36;-23493.69;;;10.29;100.00
29385;BME280;16367;48.736;9.218;2024-03-17T08:47:38;-23508.91;;;10.78;100.00
29385;BME280;16367;48.736;9.218;2024-03-17T08:49:39;-23526.47;;;11.34;100.00
29385;BME280;16367;48.736;9.218;2024-03-17T08:51:41;-23540.41;;;11.78;97.45
29385;BME280;16367;48.736;9.218;2024-03-17T08:53:43;-23564.47;;;12.54;94.00
29385;BME280;16367;48.736;9.218;2024-03-17T08:55:46;-23580.59;;;13.06;91.28
29385;BME280;16367;48.736;9.218;2024-03-17T08:57:47;-23579.31;;;13.02;85.69
29385;BME280;16367;48.736;9.218;2024-03-17T08:59:48;-23537.88;;;11.70;93.96
29385;BME280;16367;48.736;9.218;2024-03-17T09:01:52;-23523.94;;;11.25;95.28
29385;BME280;16367;48.736;9.218;2024-03-17T09:03:54;-23528.69;;;11.41;96.86
29385;BME280;16367;48.736;9.218;2024-03-17T09:05:57;-23537.09;;;11.67;95.80
29385;BME280;16367;48.736;9.218;2024-03-17T09:07:58;-23578.06;;;12.98;91.01
29385;BME280;16367;48.736;9.218;2024-03-17T09:09:59;-23566.97;;;12.62;90.04
29385;BME280;16367;48.736;9.218;2024-03-17T09:12:02;-23577.72;;;12.97;85.04
29385;BME280;16367;48.736;9.218;2024-03-17T09:14:04;-23561.28;;;12.44;88.21
29385;BME280;16367;48.736;9.218;2024-03-17T09:16:06;-23584.69;;;13.19;85.00
29385;BME280;16367;48.736;9.218;2024-03-17T09:18:11;-23569.19;;;12.69;85.23
29385;BME280;16367;48.736;9.218;2024-03-17T09:20:13;-23577.41;;;12.96;85.31
29385;BME280;16367;48.736;9.218;2024-03-17T09:22:15;-23575.84;;;12.91;81.23
29385;BME280;16367;48.736;9.218;2024-03-17T09:24:17;-23594.16;;;13.49;79.98
29385;BME280;16367;48.736;9.218;2024-03-17T09:26:19;-23613.75;;;14.11;77.41
29385;BME280;16367;48.736;9.218;2024-03-17T09:28:22;-23587.84;;;13.29;78.99
29385;BME280;16367;48.736;9.218;2024-03-17T09:30:23;-23601.59;;;13.73;77.52
29385;BME280;16367;48.736;9.218;2024-03-17T09:32:25;-23621.34;;;14.36;70.02
29385;BME280;16367;48.736;9.218;2024-03-17T09:34:27;-23594.66;;;13.51;73.12
29385;BME280;16367;48.736;9.218;2024-03-17T09:36:28;-23621.34;;;14.36;68.70
29385;BME280;16367;48.736;9.218;2024-03-17T09:38:32;-23613.59;;;14.11;64.97
29385;BME280;16367;48.736;9.218;2024-03-17T09:40:33;-23604.59;;;13.82;67.80
29385;BME280;16367;48.736;9.218;2024-03-17T09:42:35;-23595.44;;;13.53;73.05
29385;BME280;16367;48.736;9.218;2024-03-17T09:44:39;-23603.66;;;13.79;69.30
29385;BME280;16367;48.736;9.218;2024-03-17T09:46:41;-23576.47;;;12.93;68.79
29385;BME280;16367;48.736;9.218;2024-03-17T09:48:43;-23604.75;;;13.83;69.41
29385;BME280;16367;48.736;9.218;2024-03-17T09:50:50;-23588.16;;;13.30;68.06
29385;BME280;16367;48.736;9.218;2024-03-17T09:52:53;-23594.16;;;13.49;68.11
29385;BME280;16367;48.736;9.218;2024-03-17T09:54:59;-23572.03;;;12.79;66.01
29385;BME280;16367;48.736;9.218;2024-03-17T09:57:01;-23576.94;;;12.94;65.15
29385;BME280;16367;48.736;9.218;2024-03-17T09:59:07;-23577.91;;;12.97;67.07
29385;BME280;16367;48.736;9.218;2024-03-17T10:01:11;-23572.03;;;12.79;67.19
29385;BME280;16367;48.736;9.218;2024-03-17T10:03:39;-23588.00;;;13.29;67.26
29385;BME280;16367;48.736;9.218;2024-03-17T10:05:41;-23587.53;;;13.28;64.69
29385;BME280;16367;48.736;9.218;2024-03-17T10:07:44;-23599.38;;;13.66;60.97
29385;BME280;16367;48.736;9.218;2024-03-17T10:09:46;-23601.75;;;13.73;63.38
29385;BME280;16367;48.736;9.218;2024-03-17T10:11:48;-23635.53;;;14.81;62.75
29385;BME280;16367;48.736;9.218;2024-03-17T10:13:59;-23569.34;;;12.70;66.44
29385;BME280;16367;48.736;9.218;2024-03-17T10:16:01;-23565.41;;;12.57;67.45
29385;BME280;16367;48.736;9.218;2024-03-17T10:18:20;-23557.34;;;12.32;67.43
29385;BME280;16367;48.736;9.218;2024-03-17T10:20:24;-23544.38;;;11.90;68.98
29385;BME280;16367;48.736;9.218;2024-03-17T10:22:26;-23574.25;;;12.86;67.09
29385;BME280;16367;48.736;9.218;2024-03-17T10:24:28;-23557.97;;;12.34;66.30
29385;BME280;16367;48.736;9.218;2024-03-17T10:26:30;-23582.78;;;13.13;63.78
29385;BME280;16367;48.736;9.218;2024-03-17T10:28:31;-23596.06;;;13.55;64.30
29385;BME280;16367;48.736;9.218;2024-03-17T10:30:33;-23580.91;;;13.07;63.96
29385;BME280;16367;48.736;9.218;2024-03-17T10:32:37;-23574.25;;;12.86;64.04
29385;BME280;16367;48.736;9.218;2024-03-17T10:34:39;-23563.19;;;12.50;66.66
29385;BME280;16367;48.736;9.218;2024-03-17T10:36:41;-23568.72;;;12.68;66.58
29385;BME280;16367;48.736;9.218;2024-03-17T10:38:51;-23584.06;;;13.17;66.91
29385;BME280;16367;48.736;9.218;2024-03-17T10:40:53;-23603.97;;;13.80;65.40
29385;BME280;16367;48.736;9.218;2024-03-17T10:42:56;-23608.22;;;13.94;64.87
29385;BME280;16367;48.736;9.218;2024-03-17T10:44:58;-23586.59;;;13.25;65.93
29385;BME280;16367;48.736;9.218;2024-03-17T10:47:00;-23566.66;;;12.61;67.28